sensor_id;sensor_type;location;lat;lon;timestamp;P1;durP1;ratioP1;P2;durP2;ratioP2
37303;SDS011;23188;51.188;16.374;2023-07-31T00:00:53;2.50;;;1.50;;
37303;SDS011;23188;51.188;16.374;2023-07-31T00:05:03;3.20;;;1.70;;
37303;SDS011;23188;51.188;16.374;2023-07-31T00:09:09;7.10;;;1.90;;
37303;SDS011;23188;51.188;16.374;2023-07-31T00:13:12;7.20;;;2.70;;
37303;SDS011;23188;51.188;16.374;2023-07-31T00:17:16;13.60;;;3.20;;
37303;SDS011;23188;51.188;16.374;2023-07-31T00:21:26;6.40;;;2.70;;
37303;SDS011;23188;51.188;16.374;2023-07-31T00:25:29;10.50;;;2.50;;
37303;SDS011;23188;51.188;16.374;2023-07-31T00:29:33;4.30;;;1.60;;
37303;SDS011;23188;51.188;16.374;2023-07-31T00:33:37;5.00;;;1.60;;
37303;SDS011;23188;51.188;16.374;2023-07-31T00:37:41;7.10;;;1.90;;
37303;SDS011;23188;51.188;16.374;2023-07-31T00:41:45;11.50;;;2.50;;
37303;SDS011;23188;51.188;16.374;2023-07-31T00:45:48;17.60;;;2.20;;
37303;SDS011;23188;51.188;16.374;2023-07-31T00:54:46;11.00;;;3.00;;
37303;SDS011;23188;51.188;16.374;2023-07-31T00:58:53;17.70;;;3.60;;
37303;SDS011;23188;51.188;16.374;2023-07-31T01:02:58;11.40;;;3.60;;
37303;SDS011;23188;51.188;16.374;2023-07-31T01:11:27;11.80;;;3.70;;
37303;SDS011;23188;51.188;16.374;2023-07-31T01:15:46;6.00;;;1.80;;
37303;SDS011;23188;51.188;16.374;2023-07-31T01:19:50;12.60;;;3.00;;
37303;SDS011;23188;51.188;16.374;2023-07-31T01:28:38;13.80;;;2.70;;
37303;SDS011;23188;51.188;16.374;2023-07-31T01:32:59;11.60;;;2.70;;
37303;SDS011;23188;51.188;16.374;2023-07-31T01:37:08;10.30;;;3.10;;
37303;SDS011;23188;51.188;16.374;2023-07-31T01:41:12;11.10;;;3.00;;
37303;SDS011;23188;51.188;16.374;2023-07-31T01:49:45;8.80;;;3.20;;
37303;SDS011;23188;51.188;16.374;2023-07-31T01:53:48;12.70;;;3.60;;
37303;SDS011;23188;51.188;16.374;2023-07-31T01:57:51;14.40;;;3.30;;
37303;SDS011;23188;51.188;16.374;2023-07-31T05:03:23;4.50;;;2.30;;
37303;SDS011;23188;51.188;16.374;2023-07-31T05:07:26;7.30;;;2.40;;
37303;SDS011;23188;51.188;16.374;2023-07-31T05:11:30;9.30;;;2.60;;
37303;SDS011;23188;51.188;16.374;2023-07-31T05:15:33;4.80;;;1.50;;
37303;SDS011;23188;51.188;16.374;2023-07-31T05:19:36;5.50;;;2.30;;
37303;SDS011;23188;51.188;16.374;2023-07-31T05:23:39;2.10;;;1.60;;
37303;SDS011;23188;51.188;16.374;2023-07-31T05:27:43;3.20;;;2.30;;
37303;SDS011;23188;51.188;16.374;2023-07-31T05:31:46;4.40;;;2.10;;
37303;SDS011;23188;51.188;16.374;2023-07-31T05:35:49;6.30;;;1.70;;
37303;SDS011;23188;51.188;16.374;2023-07-31T05:39:52;4.60;;;1.80;;
37303;SDS011;23188;51.188;16.374;2023-07-31T05:43:56;5.20;;;2.10;;
37303;SDS011;23188;51.188;16.374;2023-07-31T05:47:59;6.20;;;1.70;;
37303;SDS011;23188;51.188;16.374;2023-07-31T05:52:03;4.00;;;2.40;;
37303;SDS011;23188;51.188;16.374;2023-07-31T05:56:06;1.90;;;1.60;;
37303;SDS011;23188;51.188;16.374;2023-07-31T06:00:09;4.80;;;1.90;;
37303;SDS011;23188;51.188;16.374;2023-07-31T06:04:13;6.60;;;2.60;;
37303;SDS011;23188;51.188;16.374;2023-07-31T06:08:17;11.40;;;2.90;;
37303;SDS011;23188;51.188;16.374;2023-07-31T06:12:20;4.10;;;1.90;;
37303;SDS011;23188;51.188;16.374;2023-07-31T06:16:24;5.90;;;1.80;;
37303;SDS011;23188;51.188;16.374;2023-07-31T06:20:30;8.30;;;2.70;;
37303;SDS011;23188;51.188;16.374;2023-07-31T06:24:33;5.00;;;1.80;;
37303;SDS011;23188;51.188;16.374;2023-07-31T06:28:36;7.10;;;1.50;;
37303;SDS011;23188;51.188;16.374;2023-07-31T06:32:40;5.50;;;2.90;;
37303;SDS011;23188;51.188;16.374;2023-07-31T06:36:44;6.30;;;1.60;;
37303;SDS011;23188;51.188;16.374;2023-07-31T06:40:47;5.60;;;2.20;;
37303;SDS011;23188;51.188;16.374;2023-07-31T06:44:52;4.50;;;2.20;;
37303;SDS011;23188;51.188;16.374;2023-07-31T06:48:55;7.20;;;2.20;;
37303;SDS011;23188;51.188;16.374;2023-07-31T06:52:59;5.80;;;2.00;;
37303;SDS011;23188;51.188;16.374;2023-07-31T06:57:02;3.40;;;2.10;;
37303;SDS011;23188;51.188;16.374;2023-07-31T07:01:06;4.90;;;2.30;;
37303;SDS011;23188;51.188;16.374;2023-07-31T07:05:10;4.20;;;2.20;;
37303;SDS011;23188;51.188;16.374;2023-07-31T07:09:13;4.50;;;1.80;;
37303;SDS011;23188;51.188;16.374;2023-07-31T07:13:17;1.90;;;1.60;;
37303;SDS011;23188;51.188;16.374;2023-07-31T07:17:21;2.80;;;1.60;;
37303;SDS011;23188;51.188;16.374;2023-07-31T07:21:25;5.50;;;1.80;;
37303;SDS011;23188;51.188;16.374;2023-07-31T07:25:28;2.80;;;1.30;;
37303;SDS011;23188;51.188;16.374;2023-07-31T07:29:33;5.90;;;2.00;;
37303;SDS011;23188;51.188;16.374;2023-07-31T07:33:37;5.00;;;1.90;;
37303;SDS011;23188;51.188;16.374;2023-07-31T07:37:41;3.40;;;1.30;;
37303;SDS011;23188;51.188;16.374;2023-07-31T07:41:45;2.10;;;1.00;;
37303;SDS011;23188;51.188;16.374;2023-07-31T07:45:49;9.30;;;2.10;;
37303;SDS011;23188;51.188;16.374;2023-07-31T07:49:53;5.60;;;1.70;;
37303;SDS011;23188;51.188;16.374;2023-07-31T07:53:57;4.00;;;1.30;;
37303;SDS011;23188;51.188;16.374;2023-07-31T07:58:00;16.10;;;1.70;;
37303;SDS011;23188;51.188;16.374;2023-07-31T08:02:04;5.90;;;1.70;;
37303;SDS011;23188;51.188;16.374;2023-07-31T08:06:09;10.60;;;1.80;;
37303;SDS011;23188;51.188;16.374;2023-07-31T08:10:13;4.70;;;1.80;;
37303;SDS011;23188;51.188;16.374;2023-07-31T08:14:16;4.50;;;0.90;;
37303;SDS011;23188;51.188;16.374;2023-07-31T08:18:20;8.00;;;1.60;;
37303;SDS011;23188;51.188;16.374;2023-07-31T08:22:24;4.60;;;1.00;;
37303;SDS011;23188;51.188;16.374;2023-07-31T08:26:28;2.00;;;1.00;;
37303;SDS011;23188;51.188;16.374;2023-07-31T08:30:32;2.10;;;0.90;;
37303;SDS011;23188;51.188;16.374;2023-07-31T08:34:39;1.60;;;0.90;;
37303;SDS011;23188;51.188;16.374;2023-07-31T08:38:43;2.10;;;0.90;;
37303;SDS011;23188;51.188;16.374;2023-07-31T08:42:46;4.30;;;2.10;;
37303;SDS011;23188;51.188;16.374;2023-07-31T08:46:51;5.50;;;2.00;;
37303;SDS011;23188;51.188;16.374;2023-07-31T08:50:55;2.70;;;0.90;;
37303;SDS011;23188;51.188;16.374;2023-07-31T08:54:59;2.80;;;0.70;;
37303;SDS011;23188;51.188;16.374;2023-07-31T08:59:02;2.40;;;0.80;;
37303;SDS011;23188;51.188;16.374;2023-07-31T09:03:14;1.80;;;1.10;;
37303;SDS011;23188;51.188;16.374;2023-07-31T09:07:20;2.20;;;0.80;;
37303;SDS011;23188;51.188;16.374;2023-07-31T09:11:24;2.00;;;0.90;;
37303;SDS011;23188;51.188;16.374;2023-07-31T09:15:28;3.00;;;1.00;;
37303;SDS011;23188;51.188;16.374;2023-07-31T09:19:40;6.10;;;1.40;;
37303;SDS011;23188;51.188;16.374;2023-07-31T09:23:44;2.40;;;1.00;;
37303;SDS011;23188;51.188;16.374;2023-07-31T09:27:49;1.40;;;0.80;;
37303;SDS011;23188;51.188;16.374;2023-07-31T09:31:57;2.70;;;0.80;;
37303;SDS011;23188;51.188;16.374;2023-07-31T09:36:01;1.50;;;0.90;;
37303;SDS011;23188;51.188;16.374;2023-07-31T09:40:08;2.10;;;1.30;;
37303;SDS011;23188;51.188;16.374;2023-07-31T09:44:11;1.80;;;0.90;;
37303;SDS011;23188;51.188;16.374;2023-07-31T09:48:16;3.90;;;1.20;;
37303;SDS011;23188;51.188;16.374;2023-07-31T09:52:22;3.00;;;1.40;;
37303;SDS011;23188;51.188;16.374;2023-07-31T09:56:29;5.50;;;1.80;;
37303;SDS011;23188;51.188;16.374;2023-07-31T10:00:35;2.10;;;1.20;;
37303;SDS011;23188;51.188;16.374;2023-07-31T10:04:51;4.20;;;1.30;;
37303;SDS011;23188;51.188;16.374;2023-07-31T10:09:01;1.10;;;0.50;;
37303;SDS011;23188;51.188;16.374;2023-07-31T10:13:07;3.40;;;2.10;;
37303;SDS011;23188;51.188;16.374;2023-07-31T10:17:11;3.30;;;1.40;;
37303;SDS011;23188;51.188;16.374;2023-07-31T10:21:16;3.10;;;1.40;;
37303;SDS011;23188;51.188;16.374;2023-07-31T10:25:21;2.20;;;1.10;;
37303;SDS011;23188;51.188;16.374;2023-07-31T10:29:25;1.80;;;1.20;;
37303;SDS011;23188;51.188;16.374;2023-07-31T10:33:30;3.10;;;1.30;;
37303;SDS011;23188;51.188;16.374;2023-07-31T10:37:41;2.00;;;1.10;;
37303;SDS011;23188;51.188;16.374;2023-07-31T10:41:46;2.50;;;1.10;;
37303;SDS011;23188;51.188;16.374;2023-07-31T10:45:50;2.30;;;1.10;;
37303;SDS011;23188;51.188;16.374;2023-07-31T10:49:57;2.50;;;1.30;;
37303;SDS011;23188;51.188;16.374;2023-07-31T10:54:20;5.80;;;1.40;;
37303;SDS011;23188;51.188;16.374;2023-07-31T10:58:24;1.20;;;0.90;;
37303;SDS011;23188;51.188;16.374;2023-07-31T11:02:28;1.90;;;1.00;;
37303;SDS011;23188;51.188;16.374;2023-07-31T11:06:34;6.30;;;2.30;;
37303;SDS011;23188;51.188;16.374;2023-07-31T11:10:40;5.50;;;1.40;;
37303;SDS011;23188;51.188;16.374;2023-07-31T11:14:52;2.80;;;2.50;;
37303;SDS011;23188;51.188;16.374;2023-07-31T11:18:58;1.70;;;1.60;;
37303;SDS011;23188;51.188;16.374;2023-07-31T11:23:02;3.30;;;1.60;;
37303;SDS011;23188;51.188;16.374;2023-07-31T11:31:10;1.60;;;1.50;;
37303;SDS011;23188;51.188;16.374;2023-07-31T11:35:14;3.20;;;2.50;;
37303;SDS011;23188;51.188;16.374;2023-07-31T11:39:18;2.30;;;1.70;;
37303;SDS011;23188;51.188;16.374;2023-07-31T11:43:22;3.60;;;1.70;;
37303;SDS011;23188;51.188;16.374;2023-07-31T11:47:27;2.50;;;1.20;;
37303;SDS011;23188;51.188;16.374;2023-07-31T11:51:31;1.40;;;1.30;;
37303;SDS011;23188;51.188;16.374;2023-07-31T11:55:34;3.40;;;1.70;;
37303;SDS011;23188;51.188;16.374;2023-07-31T11:59:39;2.00;;;1.20;;
37303;SDS011;23188;51.188;16.374;2023-07-31T12:03:44;1.90;;;1.10;;
37303;SDS011;23188;51.188;16.374;2023-07-31T12:07:56;3.50;;;1.40;;
37303;SDS011;23188;51.188;16.374;2023-07-31T12:12:00;2.20;;;1.80;;
37303;SDS011;23188;51.188;16.374;2023-07-31T12:16:05;1.70;;;1.40;;
37303;SDS011;23188;51.188;16.374;2023-07-31T12:20:09;6.40;;;2.20;;
37303;SDS011;23188;51.188;16.374;2023-07-31T12:24:17;1.80;;;1.30;;
37303;SDS011;23188;51.188;16.374;2023-07-31T12:28:22;1.30;;;1.10;;
37303;SDS011;23188;51.188;16.374;2023-07-31T12:32:26;3.50;;;1.80;;
37303;SDS011;23188;51.188;16.374;2023-07-31T12:36:33;2.10;;;1.80;;
37303;SDS011;23188;51.188;16.374;2023-07-31T12:44:43;2.30;;;1.40;;
37303;SDS011;23188;51.188;16.374;2023-07-31T12:48:47;3.90;;;2.30;;
37303;SDS011;23188;51.188;16.374;2023-07-31T12:52:51;3.40;;;1.40;;
37303;SDS011;23188;51.188;16.374;2023-07-31T12:56:56;2.20;;;1.40;;
37303;SDS011;23188;51.188;16.374;2023-07-31T13:01:03;1.70;;;1.30;;
37303;SDS011;23188;51.188;16.374;2023-07-31T13:05:37;1.90;;;1.40;;
37303;SDS011;23188;51.188;16.374;2023-07-31T13:09:47;2.90;;;1.30;;
37303;SDS011;23188;51.188;16.374;2023-07-31T13:13:51;3.60;;;1.40;;
37303;SDS011;23188;51.188;16.374;2023-07-31T13:17:55;4.10;;;1.70;;
37303;SDS011;23188;51.188;16.374;2023-07-31T13:21:59;3.70;;;1.50;;
37303;SDS011;23188;51.188;16.374;2023-07-31T13:26:03;3.10;;;2.10;;
37303;SDS011;23188;51.188;16.374;2023-07-31T13:30:07;2.40;;;1.00;;
37303;SDS011;23188;51.188;16.374;2023-07-31T13:34:12;2.50;;;1.50;;
37303;SDS011;23188;51.188;16.374;2023-07-31T13:38:19;2.40;;;1.60;;
37303;SDS011;23188;51.188;16.374;2023-07-31T13:42:23;1.50;;;0.60;;
37303;SDS011;23188;51.188;16.374;2023-07-31T13:46:27;1.50;;;1.00;;
37303;SDS011;23188;51.188;16.374;2023-07-31T13:50:31;3.30;;;2.00;;
37303;SDS011;23188;51.188;16.374;2023-07-31T13:54:35;2.80;;;1.90;;
37303;SDS011;23188;51.188;16.374;2023-07-31T13:58:39;3.70;;;1.90;;
37303;SDS011;23188;51.188;16.374;2023-07-31T14:02:43;1.80;;;1.10;;
37303;SDS011;23188;51.188;16.374;2023-07-31T14:06:48;1.60;;;1.00;;
37303;SDS011;23188;51.188;16.374;2023-07-31T14:10:53;2.60;;;2.20;;
37303;SDS011;23188;51.188;16.374;2023-07-31T14:14:57;2.40;;;1.30;;
37303;SDS011;23188;51.188;16.374;2023-07-31T14:19:01;2.30;;;1.50;;
37303;SDS011;23188;51.188;16.374;2023-07-31T14:23:06;2.90;;;2.50;;
37303;SDS011;23188;51.188;16.374;2023-07-31T14:27:10;2.10;;;1.30;;
37303;SDS011;23188;51.188;16.374;2023-07-31T14:31:14;2.60;;;1.50;;
37303;SDS011;23188;51.188;16.374;2023-07-31T14:35:18;3.40;;;2.40;;
37303;SDS011;23188;51.188;16.374;2023-07-31T14:39:22;4.40;;;1.50;;
37303;SDS011;23188;51.188;16.374;2023-07-31T14:43:26;4.10;;;2.10;;
37303;SDS011;23188;51.188;16.374;2023-07-31T14:47:33;2.30;;;1.80;;
37303;SDS011;23188;51.188;16.374;2023-07-31T14:51:39;2.50;;;1.90;;
37303;SDS011;23188;51.188;16.374;2023-07-31T14:55:43;1.70;;;1.30;;
37303;SDS011;23188;51.188;16.374;2023-07-31T14:59:47;3.90;;;1.90;;
37303;SDS011;23188;51.188;16.374;2023-07-31T15:03:51;2.30;;;1.60;;
37303;SDS011;23188;51.188;16.374;2023-07-31T15:07:55;3.30;;;1.60;;
37303;SDS011;23188;51.188;16.374;2023-07-31T15:12:00;6.60;;;1.80;;
37303;SDS011;23188;51.188;16.374;2023-07-31T15:16:04;2.20;;;1.00;;
37303;SDS011;23188;51.188;16.374;2023-07-31T15:20:09;3.40;;;1.00;;
37303;SDS011;23188;51.188;16.374;2023-07-31T15:24:15;2.00;;;1.40;;
37303;SDS011;23188;51.188;16.374;2023-07-31T15:28:19;2.60;;;1.80;;
37303;SDS011;23188;51.188;16.374;2023-07-31T15:32:24;3.00;;;1.20;;
37303;SDS011;23188;51.188;16.374;2023-07-31T15:36:28;1.30;;;1.10;;
37303;SDS011;23188;51.188;16.374;2023-07-31T15:40:32;2.00;;;1.50;;
37303;SDS011;23188;51.188;16.374;2023-07-31T15:44:36;1.60;;;1.40;;
37303;SDS011;23188;51.188;16.374;2023-07-31T15:48:40;2.30;;;2.00;;
37303;SDS011;23188;51.188;16.374;2023-07-31T15:52:44;2.50;;;1.10;;
37303;SDS011;23188;51.188;16.374;2023-07-31T15:56:48;5.30;;;1.60;;
37303;SDS011;23188;51.188;16.374;2023-07-31T16:00:53;2.40;;;2.10;;
37303;SDS011;23188;51.188;16.374;2023-07-31T16:04:57;5.70;;;2.50;;
37303;SDS011;23188;51.188;16.374;2023-07-31T16:09:01;4.40;;;1.50;;
37303;SDS011;23188;51.188;16.374;2023-07-31T16:13:05;2.80;;;1.80;;
37303;SDS011;23188;51.188;16.374;2023-07-31T16:17:08;3.70;;;1.60;;
37303;SDS011;23188;51.188;16.374;2023-07-31T16:21:12;1.80;;;1.50;;
37303;SDS011;23188;51.188;16.374;2023-07-31T16:25:16;1.80;;;1.60;;
37303;SDS011;23188;51.188;16.374;2023-07-31T16:29:20;8.70;;;1.70;;
37303;SDS011;23188;51.188;16.374;2023-07-31T16:33:23;3.50;;;0.90;;
37303;SDS011;23188;51.188;16.374;2023-07-31T16:37:27;3.70;;;1.40;;
37303;SDS011;23188;51.188;16.374;2023-07-31T16:41:31;3.60;;;1.60;;
37303;SDS011;23188;51.188;16.374;2023-07-31T16:45:35;1.80;;;0.80;;
37303;SDS011;23188;51.188;16.374;2023-07-31T16:49:39;1.90;;;1.00;;
37303;SDS011;23188;51.188;16.374;2023-07-31T16:53:43;6.00;;;1.10;;
37303;SDS011;23188;51.188;16.374;2023-07-31T16:57:47;4.80;;;2.50;;
37303;SDS011;23188;51.188;16.374;2023-07-31T17:01:50;1.90;;;0.90;;
37303;SDS011;23188;51.188;16.374;2023-07-31T17:05:54;3.80;;;1.30;;
37303;SDS011;23188;51.188;16.374;2023-07-31T17:09:58;4.10;;;1.80;;
37303;SDS011;23188;51.188;16.374;2023-07-31T17:14:01;2.00;;;1.10;;
37303;SDS011;23188;51.188;16.374;2023-07-31T17:18:10;3.20;;;1.20;;
37303;SDS011;23188;51.188;16.374;2023-07-31T17:22:14;2.70;;;1.60;;
37303;SDS011;23188;51.188;16.374;2023-07-31T17:26:17;1.50;;;1.40;;
37303;SDS011;23188;51.188;16.374;2023-07-31T17:30:21;5.90;;;1.80;;
37303;SDS011;23188;51.188;16.374;2023-07-31T17:34:25;18.00;;;2.80;;
37303;SDS011;23188;51.188;16.374;2023-07-31T17:38:29;2.50;;;1.30;;
37303;SDS011;23188;51.188;16.374;2023-07-31T17:42:37;3.10;;;0.90;;
37303;SDS011;23188;51.188;16.374;2023-07-31T17:50:50;6.00;;;2.30;;
37303;SDS011;23188;51.188;16.374;2023-07-31T17:54:55;5.80;;;2.00;;
37303;SDS011;23188;51.188;16.374;2023-07-31T17:58:59;8.20;;;1.60;;
37303;SDS011;23188;51.188;16.374;2023-07-31T18:03:03;4.60;;;1.60;;
37303;SDS011;23188;51.188;16.374;2023-07-31T18:07:09;3.40;;;2.00;;
37303;SDS011;23188;51.188;16.374;2023-07-31T18:11:13;2.40;;;1.20;;
37303;SDS011;23188;51.188;16.374;2023-07-31T18:15:17;2.50;;;1.40;;
37303;SDS011;23188;51.188;16.374;2023-07-31T18:19:21;3.10;;;1.10;;
37303;SDS011;23188;51.188;16.374;2023-07-31T18:23:25;3.10;;;1.30;;
37303;SDS011;23188;51.188;16.374;2023-07-31T18:27:29;8.70;;;2.10;;
37303;SDS011;23188;51.188;16.374;2023-07-31T18:31:33;5.50;;;1.60;;
37303;SDS011;23188;51.188;16.374;2023-07-31T18:35:37;6.00;;;1.30;;
37303;SDS011;23188;51.188;16.374;2023-07-31T18:39:42;3.80;;;1.50;;
37303;SDS011;23188;51.188;16.374;2023-07-31T18:43:46;6.30;;;2.00;;
37303;SDS011;23188;51.188;16.374;2023-07-31T18:47:50;3.90;;;2.00;;
37303;SDS011;23188;51.188;16.374;2023-07-31T18:51:54;2.90;;;1.60;;
37303;SDS011;23188;51.188;16.374;2023-07-31T18:55:57;5.00;;;2.30;;
37303;SDS011;23188;51.188;16.374;2023-07-31T19:00:02;3.20;;;1.90;;
37303;SDS011;23188;51.188;16.374;2023-07-31T19:04:06;1.80;;;1.40;;
37303;SDS011;23188;51.188;16.374;2023-07-31T19:08:10;3.50;;;2.50;;
37303;SDS011;23188;51.188;16.374;2023-07-31T19:12:14;3.10;;;1.80;;
37303;SDS011;23188;51.188;16.374;2023-07-31T19:16:18;6.70;;;1.90;;
37303;SDS011;23188;51.188;16.374;2023-07-31T19:20:23;4.10;;;2.10;;
37303;SDS011;23188;51.188;16.374;2023-07-31T19:24:27;5.70;;;2.50;;
37303;SDS011;23188;51.188;16.374;2023-07-31T19:28:38;3.80;;;1.80;;
37303;SDS011;23188;51.188;16.374;2023-07-31T19:32:41;3.80;;;1.90;;
37303;SDS011;23188;51.188;16.374;2023-07-31T19:36:45;6.90;;;3.10;;
37303;SDS011;23188;51.188;16.374;2023-07-31T19:40:51;2.20;;;1.90;;
37303;SDS011;23188;51.188;16.374;2023-07-31T19:44:55;5.70;;;3.30;;
37303;SDS011;23188;51.188;16.374;2023-07-31T19:48:59;4.30;;;2.70;;
37303;SDS011;23188;51.188;16.374;2023-07-31T19:53:03;5.60;;;2.60;;
37303;SDS011;23188;51.188;16.374;2023-07-31T19:57:07;2.90;;;1.70;;
37303;SDS011;23188;51.188;16.374;2023-07-31T20:01:10;3.90;;;2.20;;
37303;SDS011;23188;51.188;16.374;2023-07-31T20:05:14;6.00;;;2.40;;
37303;SDS011;23188;51.188;16.374;2023-07-31T20:09:18;5.90;;;2.30;;
37303;SDS011;23188;51.188;16.374;2023-07-31T20:13:22;3.40;;;1.80;;
37303;SDS011;23188;51.188;16.374;2023-07-31T20:17:26;2.40;;;1.80;;
37303;SDS011;23188;51.188;16.374;2023-07-31T20:21:31;9.80;;;4.40;;
37303;SDS011;23188;51.188;16.374;2023-07-31T20:25:35;3.10;;;1.80;;
37303;SDS011;23188;51.188;16.374;2023-07-31T20:29:39;7.10;;;2.80;;
37303;SDS011;23188;51.188;16.374;2023-07-31T20:33:44;3.20;;;2.20;;
37303;SDS011;23188;51.188;16.374;2023-07-31T20:37:48;4.10;;;1.40;;
37303;SDS011;23188;51.188;16.374;2023-07-31T20:41:52;2.40;;;1.60;;
37303;SDS011;23188;51.188;16.374;2023-07-31T20:45:56;2.90;;;1.70;;
37303;SDS011;23188;51.188;16.374;2023-07-31T20:50:00;4.60;;;2.20;;
37303;SDS011;23188;51.188;16.374;2023-07-31T20:54:05;15.70;;;2.30;;
37303;SDS011;23188;51.188;16.374;2023-07-31T20:58:08;9.70;;;2.80;;
37303;SDS011;23188;51.188;16.374;2023-07-31T21:02:12;6.60;;;2.60;;
37303;SDS011;23188;51.188;16.374;2023-07-31T21:06:16;14.80;;;4.70;;
37303;SDS011;23188;51.188;16.374;2023-07-31T21:10:22;13.10;;;6.00;;
37303;SDS011;23188;51.188;16.374;2023-07-31T21:14:26;29.30;;;8.20;;
37303;SDS011;23188;51.188;16.374;2023-07-31T21:18:30;27.60;;;7.50;;
37303;SDS011;23188;51.188;16.374;2023-07-31T21:22:33;40.20;;;10.10;;
37303;SDS011;23188;51.188;16.374;2023-07-31T21:26:37;38.60;;;10.10;;
37303;SDS011;23188;51.188;16.374;2023-07-31T21:30:41;17.20;;;4.50;;
37303;SDS011;23188;51.188;16.374;2023-07-31T21:34:49;2.90;;;1.50;;
37303;SDS011;23188;51.188;16.374;2023-07-31T21:38:52;7.30;;;2.30;;
37303;SDS011;23188;51.188;16.374;2023-07-31T21:42:55;9.60;;;2.10;;
37303;SDS011;23188;51.188;16.374;2023-07-31T21:47:00;4.10;;;2.40;;
37303;SDS011;23188;51.188;16.374;2023-07-31T21:51:03;3.80;;;2.10;;
37303;SDS011;23188;51.188;16.374;2023-07-31T21:55:07;3.50;;;2.30;;
37303;SDS011;23188;51.188;16.374;2023-07-31T21:59:12;3.70;;;2.30;;
37303;SDS011;23188;51.188;16.374;2023-07-31T22:03:15;3.50;;;1.60;;
37303;SDS011;23188;51.188;16.374;2023-07-31T22:07:19;4.60;;;2.30;;
37303;SDS011;23188;51.188;16.374;2023-07-31T22:11:23;2.70;;;1.60;;
37303;SDS011;23188;51.188;16.374;2023-07-31T22:15:26;3.10;;;2.10;;
37303;SDS011;23188;51.188;16.374;2023-07-31T22:19:30;11.40;;;2.40;;
37303;SDS011;23188;51.188;16.374;2023-07-31T22:23:33;8.50;;;2.40;;
37303;SDS011;23188;51.188;16.374;2023-07-31T22:27:37;10.40;;;3.40;;
37303;SDS011;23188;51.188;16.374;2023-07-31T22:31:40;1.80;;;1.40;;
37303;SDS011;23188;51.188;16.374;2023-07-31T22:35:43;4.80;;;1.80;;
37303;SDS011;23188;51.188;16.374;2023-07-31T22:39:47;3.90;;;2.10;;
37303;SDS011;23188;51.188;16.374;2023-07-31T22:43:50;3.70;;;2.60;;
37303;SDS011;23188;51.188;16.374;2023-07-31T22:47:54;3.60;;;2.90;;
37303;SDS011;23188;51.188;16.374;2023-07-31T22:51:57;6.80;;;2.40;;
37303;SDS011;23188;51.188;16.374;2023-07-31T22:56:04;2.60;;;1.80;;
37303;SDS011;23188;51.188;16.374;2023-07-31T23:00:08;5.20;;;2.00;;
37303;SDS011;23188;51.188;16.374;2023-07-31T23:04:12;2.20;;;1.60;;
37303;SDS011;23188;51.188;16.374;2023-07-31T23:08:16;4.10;;;2.60;;
37303;SDS011;23188;51.188;16.374;2023-07-31T23:12:21;2.30;;;1.80;;
37303;SDS011;23188;51.188;16.374;2023-07-31T23:16:24;5.00;;;2.60;;
37303;SDS011;23188;51.188;16.374;2023-07-31T23:20:28;3.60;;;2.30;;
37303;SDS011;23188;51.188;16.374;2023-07-31T23:24:31;2.60;;;2.20;;
37303;SDS011;23188;51.188;16.374;2023-07-31T23:28:34;2.60;;;1.80;;
37303;SDS011;23188;51.188;16.374;2023-07-31T23:32:38;6.60;;;2.90;;
37303;SDS011;23188;51.188;16.374;2023-07-31T23:36:42;4.10;;;2.50;;
37303;SDS011;23188;51.188;16.374;2023-07-31T23:40:45;4.10;;;1.90;;
37303;SDS011;23188;51.188;16.374;2023-07-31T23:44:48;3.10;;;1.90;;
37303;SDS011;23188;51.188;16.374;2023-07-31T23:49:10;4.40;;;2.10;;
37303;SDS011;23188;51.188;16.374;2023-07-31T23:53:14;4.20;;;2.50;;
37303;SDS011;23188;51.188;16.374;2023-07-31T23:57:17;4.70;;;3.20;;
